Time;durP1;ratioP1;P1;durP2;ratioP2;P2;SDS_P1;SDS_P2;PMS_P1;PMS_P2;Temp;Humidity;BMP_temperature;BMP_pressure;BME280_temperature;BME280_humidity;BME280_pressure;Samples;Min_cycle;Max_cycle;Signal;HPM_P1;HPM_P2
2021/11/22 00:02:28;;;;;;;26.50;9.83;;;;;;;;;;5057831;28;20732;-74
2021/11/22 00:04:55;;;;;;;23.47;9.77;;;;;;;;;;5062753;28;20311;-73
2021/11/22 00:07:22;;;;;;;22.77;9.47;;;;;;;;;;5063229;28;20330;-75
2021/11/22 00:09:49;;;;;;;19.00;9.07;;;;;;;;;;5058788;28;20258;-75
2021/11/22 00:12:18;;;;;;;26.73;10.27;;;;;;;;;;5058347;28;21329;-74
2021/11/22 00:14:45;;;;;;;25.70;10.10;;;;;;;;;;5060813;28;20354;-75
2021/11/22 00:17:12;;;;;;;24.97;11.13;;;;;;;;;;5059798;28;20871;-75
2021/11/22 00:19:40;;;;;;;21.63;9.80;;;;;;;;;;5059976;28;20273;-74
2021/11/22 00:22:07;;;;;;;26.40;10.00;;;;;;;;;;5061291;28;20210;-74
2021/11/22 00:24:34;;;;;;;21.93;9.50;;;;;;;;;;5058966;28;20209;-74
2021/11/22 00:27:01;;;;;;;24.37;10.17;;;;;;;;;;5057899;28;20330;-74
2021/11/22 00:29:30;;;;;;;19.90;9.50;;;;;;;;;;5060402;28;20230;-75
2021/11/22 00:31:57;;;;;;;18.67;9.07;;;;;;;;;;5058880;28;20296;-75
2021/11/22 00:34:25;;;;;;;22.20;9.20;;;;;;;;;;5065317;28;20233;-75
2021/11/22 00:36:52;;;;;;;23.53;9.33;;;;;;;;;;5058470;28;20325;-75
2021/11/22 00:39:19;;;;;;;26.13;8.50;;;;;;;;;;5061373;28;20296;-74
2021/11/22 00:41:46;;;;;;;20.00;9.50;;;;;;;;;;5059707;28;20198;-74
2021/11/22 00:44:14;;;;;;;20.03;8.27;;;;;;;;;;5057273;28;20233;-75
2021/11/22 00:46:42;;;;;;;18.83;7.87;;;;;;;;;;5062743;28;20329;-74
2021/11/22 00:49:09;;;;;;;23.77;9.30;;;;;;;;;;5058723;28;20309;-74
2021/11/22 00:51:36;;;;;;;18.27;7.90;;;;;;;;;;5059948;28;20514;-74
2021/11/22 00:54:04;;;;;;;23.60;8.40;;;;;;;;;;5060320;28;20206;-74
2021/11/22 00:56:31;;;;;;;28.07;9.50;;;;;;;;;;5054962;28;20724;-74
2021/11/22 00:58:58;;;;;;;27.43;8.90;;;;;;;;;;5057331;28;20213;-74
2021/11/22 01:01:25;;;;;;;24.37;9.07;;;;;;;;;;5058715;28;20316;-74
2021/11/22 01:03:54;;;;;;;18.87;8.60;;;;;;;;;;5055962;28;20297;-74
2021/11/22 01:06:21;;;;;;;20.67;7.60;;;;;;;;;;5058433;28;20297;-74
2021/11/22 01:08:48;;;;;;;17.97;7.03;;;;;;;;;;5061379;28;20237;-74
2021/11/22 01:11:15;;;;;;;21.03;7.83;;;;;;;;;;5061035;28;20641;-74
2021/11/22 01:13:43;;;;;;;16.10;6.57;;;;;;;;;;5053605;28;20297;-74
2021/11/22 01:16:10;;;;;;;24.03;7.77;;;;;;;;;;5060539;28;20401;-75
2021/11/22 01:18:37;;;;;;;24.13;7.60;;;;;;;;;;5058655;28;20298;-74
2021/11/22 01:21:05;;;;;;;17.40;7.60;;;;;;;;;;5058396;28;20317;-74
2021/11/22 01:23:33;;;;;;;16.07;7.10;;;;;;;;;;5055235;28;20289;-74
2021/11/22 01:26:00;;;;;;;19.60;7.23;;;;;;;;;;5048486;28;20202;-74
2021/11/22 01:28:29;;;;;;;21.87;7.57;;;;;;;;;;5052052;28;20202;-74
2021/11/22 01:30:57;;;;;;;23.60;7.83;;;;;;;;;;5056781;28;20225;-74
2021/11/22 01:33:24;;;;;;;23.87;8.50;;;;;;;;;;5055850;28;20587;-74
2021/11/22 01:35:51;;;;;;;18.00;8.00;;;;;;;;;;5058497;28;20325;-74
2021/11/22 01:38:20;;;;;;;21.60;8.23;;;;;;;;;;5058074;28;20234;-74
2021/11/22 01:40:49;;;;;;;22.87;8.13;;;;;;;;;;5056601;28;20265;-74
2021/11/22 01:43:16;;;;;;;16.40;7.60;;;;;;;;;;5059113;28;20332;-74
2021/11/22 01:45:44;;;;;;;18.20;7.30;;;;;;;;;;5057299;28;20696;-74
2021/11/22 01:48:11;;;;;;;21.70;7.63;;;;;;;;;;5061548;28;20301;-74
2021/11/22 01:50:38;;;;;;;19.27;7.10;;;;;;;;;;5056932;28;20306;-74
2021/11/22 01:53:05;;;;;;;18.47;6.83;;;;;;;;;;5056939;28;20289;-74
2021/11/22 01:55:34;;;;;;;16.63;6.53;;;;;;;;;;5059242;28;20298;-74
2021/11/22 01:58:02;;;;;;;30.90;7.47;;;;;;;;;;5061914;28;20203;-74
2021/11/22 02:00:30;;;;;;;21.47;7.10;;;;;;;;;;5061052;28;20233;-74
2021/11/22 02:02:58;;;;;;;15.30;6.87;;;;;;;;;;5056059;28;20293;-74
2021/11/22 02:05:25;;;;;;;17.87;6.07;;;;;;;;;;5058648;28;20739;-74
2021/11/22 02:07:53;;;;;;;21.37;7.10;;;;;;;;;;5060645;28;20229;-74
2021/11/22 02:10:20;;;;;;;16.73;6.17;;;;;;;;;;5058052;28;20308;-74
2021/11/22 02:12:49;;;;;;;23.63;7.13;;;;;;;;;;5054704;28;20297;-74
2021/11/22 02:15:17;;;;;;;17.40;6.37;;;;;;;;;;5061439;28;20239;-74
2021/11/22 02:17:44;;;;;;;20.43;7.47;;;;;;;;;;5056687;28;20677;-74
2021/11/22 02:20:15;;;;;;;21.70;7.30;;;;;;;;;;5057228;28;20525;-74
2021/11/22 02:22:45;;;;;;;18.83;6.77;;;;;;;;;;5059060;28;20225;-74
2021/11/22 02:25:13;;;;;;;14.70;6.33;;;;;;;;;;5054634;28;20213;-75
2021/11/22 02:27:40;;;;;;;14.87;6.93;;;;;;;;;;5057497;28;20230;-74
2021/11/22 02:30:08;;;;;;;15.80;6.93;;;;;;;;;;5059297;28;20272;-73
2021/11/22 02:32:37;;;;;;;13.60;6.27;;;;;;;;;;5054519;28;20236;-74
2021/11/22 02:35:04;;;;;;;16.37;6.47;;;;;;;;;;5057434;28;20773;-74
2021/11/22 02:37:33;;;;;;;17.80;6.63;;;;;;;;;;5055732;28;20661;-74
2021/11/22 02:40:00;;;;;;;19.67;6.47;;;;;;;;;;5055237;28;20301;-75
2021/11/22 02:42:28;;;;;;;16.00;6.87;;;;;;;;;;5059057;28;20225;-75
2021/11/22 02:44:55;;;;;;;18.13;6.27;;;;;;;;;;5057403;28;20235;-74
2021/11/22 02:47:22;;;;;;;14.43;5.93;;;;;;;;;;5056264;28;20249;-75
2021/11/22 02:49:50;;;;;;;18.03;6.70;;;;;;;;;;5056978;28;21035;-75
2021/11/22 02:52:17;;;;;;;23.90;6.77;;;;;;;;;;5056688;28;20289;-74
2021/11/22 02:54:47;;;;;;;20.03;6.70;;;;;;;;;;5057146;28;20653;-75
2021/11/22 02:57:15;;;;;;;15.17;6.50;;;;;;;;;;5058927;28;20660;-74
2021/11/22 02:59:42;;;;;;;12.83;5.87;;;;;;;;;;5055683;28;20250;-74
2021/11/22 03:02:10;;;;;;;16.43;5.83;;;;;;;;;;5057344;28;20313;-74
2021/11/22 03:04:39;;;;;;;19.10;7.20;;;;;;;;;;5057007;28;20194;-75
2021/11/22 03:07:06;;;;;;;15.93;6.00;;;;;;;;;;5055092;28;20294;-74
2021/11/22 03:09:33;;;;;;;16.47;6.30;;;;;;;;;;5061596;28;20488;-75
2021/11/22 03:12:03;;;;;;;18.67;5.93;;;;;;;;;;5054846;28;20644;-74
2021/11/22 03:14:30;;;;;;;19.47;6.47;;;;;;;;;;5057232;28;20238;-74
2021/11/22 03:16:57;;;;;;;24.60;6.20;;;;;;;;;;5059194;28;20582;-75
2021/11/22 03:19:25;;;;;;;20.63;6.00;;;;;;;;;;5055656;28;20238;-74
2021/11/22 03:21:53;;;;;;;24.13;6.77;;;;;;;;;;5057138;28;20309;-74
2021/11/22 03:24:20;;;;;;;20.83;6.07;;;;;;;;;;5058916;28;20234;-74
2021/11/22 03:26:48;;;;;;;19.83;6.00;;;;;;;;;;5054041;28;20293;-75
2021/11/22 03:29:16;;;;;;;15.63;5.40;;;;;;;;;;5061363;28;20234;-75
2021/11/22 03:31:43;;;;;;;12.90;5.23;;;;;;;;;;5058849;28;20282;-75
2021/11/22 03:34:12;;;;;;;18.23;5.33;;;;;;;;;;5060552;28;20199;-74
2021/11/22 03:36:39;;;;;;;14.87;5.63;;;;;;;;;;5062264;28;20309;-75
2021/11/22 03:39:10;;;;;;;15.07;5.57;;;;;;;;;;5068138;22;20230;-75
2021/11/22 03:41:37;;;;;;;13.67;6.37;;;;;;;;;;5047123;28;20223;-75
2021/11/22 03:44:12;;;;;;;14.83;5.40;;;;;;;;;;5058493;28;20280;-74
2021/11/22 03:46:42;;;;;;;18.63;6.20;;;;;;;;;;5046572;28;20592;-74
2021/11/22 03:49:09;;;;;;;17.43;5.13;;;;;;;;;;5049329;28;20216;-74
2021/11/22 03:51:36;;;;;;;12.57;5.97;;;;;;;;;;5048022;28;20222;-74
2021/11/22 03:54:04;;;;;;;14.50;5.20;;;;;;;;;;5046976;28;20551;-74
2021/11/22 03:56:31;;;;;;;14.50;5.30;;;;;;;;;;5051201;28;20246;-74
2021/11/22 03:58:58;;;;;;;18.63;6.40;;;;;;;;;;5040891;28;20297;-74
2021/11/22 04:01:25;;;;;;;17.13;5.63;;;;;;;;;;5054162;28;20313;-75
2021/11/22 04:03:54;;;;;;;17.00;5.43;;;;;;;;;;5044095;28;20293;-75
2021/11/22 04:06:21;;;;;;;20.70;5.67;;;;;;;;;;5048537;28;20289;-75
2021/11/22 04:08:48;;;;;;;17.90;5.30;;;;;;;;;;5046645;28;20567;-75
2021/11/22 04:11:16;;;;;;;18.20;5.60;;;;;;;;;;5040302;28;20301;-75
2021/11/22 04:13:43;;;;;;;11.23;5.53;;;;;;;;;;5052389;28;20714;-75
2021/11/22 04:16:11;;;;;;;16.47;5.47;;;;;;;;;;5039546;28;20225;-75
2021/11/22 04:18:38;;;;;;;19.27;5.90;;;;;;;;;;5048372;28;20294;-75
2021/11/22 04:21:07;;;;;;;16.50;5.50;;;;;;;;;;5045645;28;20225;-74
2021/11/22 04:23:35;;;;;;;15.87;5.27;;;;;;;;;;5046804;28;20462;-75
2021/11/22 04:26:02;;;;;;;13.97;4.80;;;;;;;;;;5041549;28;20295;-75
2021/11/22 04:28:29;;;;;;;13.63;4.60;;;;;;;;;;5049042;28;20668;-74
2021/11/22 04:30:56;;;;;;;12.70;4.90;;;;;;;;;;5044492;28;21003;-75
2021/11/22 04:33:23;;;;;;;12.33;5.00;;;;;;;;;;5045163;28;20570;-75
2021/11/22 04:35:51;;;;;;;12.47;4.67;;;;;;;;;;5048133;28;20515;-75
2021/11/22 04:38:19;;;;;;;22.20;4.97;;;;;;;;;;5045833;28;20301;-75
2021/11/22 04:40:46;;;;;;;19.60;5.63;;;;;;;;;;5041446;28;20474;-75
2021/11/22 04:43:14;;;;;;;16.73;5.50;;;;;;;;;;5048927;28;20503;-75
2021/11/22 04:45:41;;;;;;;11.60;4.43;;;;;;;;;;5044208;28;20245;-75
2021/11/22 04:48:09;;;;;;;19.00;6.97;;;;;;;;;;5040114;28;20496;-75
2021/11/22 04:50:37;;;;;;;29.20;6.23;;;;;;;;;;5038707;28;20542;-75
2021/11/22 04:53:05;;;;;;;17.57;5.97;;;;;;;;;;5047809;28;20720;-75
2021/11/22 04:55:34;;;;;;;23.80;7.97;;;;;;;;;;5035890;28;20560;-75
2021/11/22 04:58:01;;;;;;;26.93;11.27;;;;;;;;;;5029389;28;20758;-75
2021/11/22 05:00:28;;;;;;;21.10;8.27;;;;;;;;;;5028935;28;20230;-75
2021/11/22 05:02:56;;;;;;;21.70;8.83;;;;;;;;;;5036781;28;20233;-75
2021/11/22 05:05:23;;;;;;;25.37;9.93;;;;;;;;;;5028641;28;20199;-75
2021/11/22 05:07:51;;;;;;;28.70;10.57;;;;;;;;;;5030320;28;20806;-75
2021/11/22 05:10:19;;;;;;;23.70;8.70;;;;;;;;;;5034480;28;20579;-75
2021/11/22 05:12:48;;;;;;;25.37;7.47;;;;;;;;;;5032697;28;20638;-75
2021/11/22 05:15:15;;;;;;;33.27;7.73;;;;;;;;;;5034736;28;20457;-75
2021/11/22 05:17:43;;;;;;;21.37;6.07;;;;;;;;;;5027931;28;20282;-75
2021/11/22 05:20:10;;;;;;;17.17;5.73;;;;;;;;;;5046778;28;20305;-75
2021/11/22 05:22:37;;;;;;;21.70;7.97;;;;;;;;;;5044421;28;20259;-75
2021/11/22 05:25:05;;;;;;;33.03;10.27;;;;;;;;;;5042523;28;20297;-75
2021/11/22 05:27:33;;;;;;;36.30;11.90;;;;;;;;;;5047818;28;20231;-75
2021/11/22 05:30:02;;;;;;;22.23;9.20;;;;;;;;;;5039074;28;20309;-75
2021/11/22 05:32:29;;;;;;;21.90;7.43;;;;;;;;;;5036781;28;20727;-75
2021/11/22 05:34:57;;;;;;;16.87;6.90;;;;;;;;;;5040569;28;20544;-75
2021/11/22 05:37:27;;;;;;;28.23;7.37;;;;;;;;;;5035595;28;20207;-75
2021/11/22 05:39:55;;;;;;;21.73;7.37;;;;;;;;;;5037439;28;20233;-75
2021/11/22 05:42:22;;;;;;;22.57;8.37;;;;;;;;;;5043902;28;20313;-75
2021/11/22 05:44:49;;;;;;;22.67;7.80;;;;;;;;;;5037256;28;20727;-75
2021/11/22 05:47:18;;;;;;;20.97;7.60;;;;;;;;;;5035124;28;20203;-74
2021/11/22 05:49:46;;;;;;;13.80;6.70;;;;;;;;;;5034140;28;20448;-76
2021/11/22 05:52:13;;;;;;;19.43;6.80;;;;;;;;;;5036986;28;20269;-76
2021/11/22 05:54:47;;;;;;;13.50;6.60;;;;;;;;;;5041707;28;20675;-76
2021/11/22 05:57:14;;;;;;;19.87;5.10;;;;;;;;;;5036300;28;20218;-75
2021/11/22 05:59:41;;;;;;;16.17;5.70;;;;;;;;;;5037505;28;20711;-74
2021/11/22 06:02:09;;;;;;;15.17;5.90;;;;;;;;;;5043068;28;20315;-74
2021/11/22 06:04:37;;;;;;;16.00;5.83;;;;;;;;;;5046557;28;20632;-75
2021/11/22 06:07:05;;;;;;;14.80;5.60;;;;;;;;;;5036387;28;20642;-74
2021/11/22 06:09:32;;;;;;;18.63;5.63;;;;;;;;;;5036385;28;20307;-74
2021/11/22 06:11:59;;;;;;;14.70;5.93;;;;;;;;;;5038469;28;20234;-74
2021/11/22 06:14:26;;;;;;;14.63;5.53;;;;;;;;;;5026777;28;20305;-75
2021/11/22 06:16:54;;;;;;;14.40;5.50;;;;;;;;;;5034577;28;20333;-74
2021/11/22 06:19:21;;;;;;;14.90;5.00;;;;;;;;;;5034168;28;20271;-74
2021/11/22 06:21:50;;;;;;;19.87;5.87;;;;;;;;;;5037569;28;20243;-74
2021/11/22 06:24:18;;;;;;;13.97;5.70;;;;;;;;;;5040969;28;20846;-74
2021/11/22 06:26:45;;;;;;;16.33;5.67;;;;;;;;;;5046115;28;20289;-75
2021/11/22 06:29:17;;;;;;;15.40;5.17;;;;;;;;;;5036127;28;20208;-74
2021/11/22 06:31:44;;;;;;;14.80;5.53;;;;;;;;;;5042048;28;20645;-77
2021/11/22 06:34:12;;;;;;;18.93;5.93;;;;;;;;;;5036876;28;20208;-75
2021/11/22 06:36:39;;;;;;;16.83;6.20;;;;;;;;;;5034821;28;20230;-75
2021/11/22 06:39:08;;;;;;;14.50;6.30;;;;;;;;;;5055057;22;20277;-76
2021/11/22 06:41:35;;;;;;;14.77;5.83;;;;;;;;;;5071838;28;20321;-75
2021/11/22 06:44:05;;;;;;;15.50;6.70;;;;;;;;;;5074127;28;21533;-77
2021/11/22 06:49:19;;;;;;;18.63;6.43;;;;;;;;;;5094648;28;20204;-77
2021/11/22 06:54:30;;;;;;;16.20;6.23;;;;;;;;;;5090640;28;20273;-78
2021/11/22 06:56:58;;;;;;;19.70;6.10;;;;;;;;;;5102351;28;20584;-79
2021/11/22 06:59:27;;;;;;;17.67;6.57;;;;;;;;;;5089516;28;20286;-81
2021/11/22 07:01:55;;;;;;;16.97;5.80;;;;;;;;;;5076268;28;20229;-79
2021/11/22 07:04:23;;;;;;;18.33;5.77;;;;;;;;;;5081132;28;20465;-79
2021/11/22 07:06:52;;;;;;;16.83;6.60;;;;;;;;;;5083724;28;20209;-79
2021/11/22 07:09:21;;;;;;;16.00;6.40;;;;;;;;;;5080804;28;20205;-78
2021/11/22 07:11:51;;;;;;;13.40;6.13;;;;;;;;;;5085786;28;20201;-78
2021/11/22 07:14:19;;;;;;;17.47;6.50;;;;;;;;;;5086219;28;20233;-77
2021/11/22 07:16:51;;;;;;;17.23;6.90;;;;;;;;;;5085967;28;20292;-78
2021/11/22 07:19:19;;;;;;;17.50;6.47;;;;;;;;;;5082513;28;20202;-77
2021/11/22 07:21:46;;;;;;;21.53;6.40;;;;;;;;;;5083218;28;20619;-77
2021/11/22 07:24:14;;;;;;;14.60;6.33;;;;;;;;;;5085427;28;20229;-77
2021/11/22 07:26:41;;;;;;;16.17;6.10;;;;;;;;;;5079889;28;20679;-77
2021/11/22 07:29:10;;;;;;;16.37;6.70;;;;;;;;;;5081732;28;20280;-77
2021/11/22 07:31:37;;;;;;;17.00;6.00;;;;;;;;;;5081549;28;20228;-77
2021/11/22 07:34:05;;;;;;;25.30;6.27;;;;;;;;;;5081677;28;20321;-77
2021/11/22 07:36:32;;;;;;;16.50;6.53;;;;;;;;;;5081023;28;20208;-77
2021/11/22 07:38:59;;;;;;;15.93;6.30;;;;;;;;;;5079922;28;20296;-78
2021/11/22 07:41:26;;;;;;;20.83;6.60;;;;;;;;;;5085990;28;20255;-77
2021/11/22 07:43:54;;;;;;;18.97;6.90;;;;;;;;;;5091848;28;20265;-77
2021/11/22 07:46:22;;;;;;;31.87;8.20;;;;;;;;;;5081434;28;20290;-77
2021/11/22 07:48:50;;;;;;;17.93;7.97;;;;;;;;;;5078927;28;20215;-77
2021/11/22 07:51:17;;;;;;;18.57;7.50;;;;;;;;;;5077794;28;20617;-77
2021/11/22 07:53:44;;;;;;;25.00;7.20;;;;;;;;;;5080080;28;20280;-77
2021/11/22 07:56:12;;;;;;;15.93;6.37;;;;;;;;;;5080617;28;20257;-77
2021/11/22 07:58:39;;;;;;;18.37;7.60;;;;;;;;;;5079908;28;20206;-77
2021/11/22 08:01:07;;;;;;;14.57;7.13;;;;;;;;;;5078324;28;20317;-77
2021/11/22 08:03:35;;;;;;;13.57;6.27;;;;;;;;;;5082502;28;20322;-77
2021/11/22 08:06:03;;;;;;;15.93;6.17;;;;;;;;;;5080627;28;20214;-77
2021/11/22 08:08:32;;;;;;;13.37;5.10;;;;;;;;;;5081969;28;20243;-77
2021/11/22 08:11:07;;;;;;;4.73;3.00;;;;;;;;;;5077260;28;20727;-77
2021/11/22 08:13:34;;;;;;;6.43;3.47;;;;;;;;;;5077355;28;20205;-78
2021/11/22 08:16:04;;;;;;;8.20;3.10;;;;;;;;;;5080764;28;20255;-77
2021/11/22 08:18:31;;;;;;;4.50;2.47;;;;;;;;;;5079901;28;20214;-78
2021/11/22 08:21:00;;;;;;;5.47;2.90;;;;;;;;;;5080581;28;20257;-78
2021/11/22 08:23:28;;;;;;;4.87;2.80;;;;;;;;;;5077685;28;20666;-78
2021/11/22 08:25:55;;;;;;;3.03;2.07;;;;;;;;;;5080269;28;20321;-78
2021/11/22 08:28:23;;;;;;;5.37;2.60;;;;;;;;;;5076179;28;21569;-78
2021/11/22 08:30:50;;;;;;;3.57;2.27;;;;;;;;;;5082480;28;20253;-78
2021/11/22 08:33:18;;;;;;;3.73;2.43;;;;;;;;;;5081032;28;20249;-78
2021/11/22 08:35:45;;;;;;;18.00;5.23;;;;;;;;;;5080569;28;20267;-78
2021/11/22 08:38:14;;;;;;;4.27;2.47;;;;;;;;;;5078642;28;20202;-78
2021/11/22 08:40:42;;;;;;;7.07;2.43;;;;;;;;;;5080185;28;20269;-76
2021/11/22 08:43:10;;;;;;;4.20;2.20;;;;;;;;;;5080639;28;20711;-77
2021/11/22 08:45:37;;;;;;;2.73;1.90;;;;;;;;;;5083639;28;20685;-77
2021/11/22 08:48:05;;;;;;;4.33;1.90;;;;;;;;;;5081250;28;20205;-77
2021/11/22 08:50:32;;;;;;;2.70;1.50;;;;;;;;;;5094713;28;20221;-77
2021/11/22 08:52:59;;;;;;;3.00;1.80;;;;;;;;;;5091911;28;20236;-77
2021/11/22 08:55:28;;;;;;;3.27;1.90;;;;;;;;;;5080512;28;20225;-76
2021/11/22 08:57:55;;;;;;;2.33;1.70;;;;;;;;;;5083576;28;20266;-76
2021/11/22 09:00:25;;;;;;;2.53;1.20;;;;;;;;;;5080043;28;20328;-76
2021/11/22 09:02:52;;;;;;;5.17;1.67;;;;;;;;;;5082867;28;20719;-75
2021/11/22 09:05:19;;;;;;;3.30;2.40;;;;;;;;;;5077850;28;20198;-76
2021/11/22 09:07:47;;;;;;;5.67;2.13;;;;;;;;;;5079233;28;20226;-76
2021/11/22 09:10:14;;;;;;;2.93;1.37;;;;;;;;;;5082337;28;20640;-76
2021/11/22 09:12:42;;;;;;;1.67;1.10;;;;;;;;;;5079070;28;20260;-75
2021/11/22 09:15:10;;;;;;;1.50;1.23;;;;;;;;;;5080672;28;20286;-76
2021/11/22 09:17:37;;;;;;;2.77;1.57;;;;;;;;;;5077622;28;20629;-76
2021/11/22 09:20:04;;;;;;;2.20;1.33;;;;;;;;;;5078230;28;20257;-77
2021/11/22 09:22:32;;;;;;;2.73;1.43;;;;;;;;;;5079007;28;20309;-77
2021/11/22 09:25:00;;;;;;;4.37;1.80;;;;;;;;;;5079208;28;20229;-76
2021/11/22 09:27:27;;;;;;;1.70;1.30;;;;;;;;;;5078351;28;20686;-76
2021/11/22 09:29:56;;;;;;;4.27;1.50;;;;;;;;;;5078729;28;20262;-77
2021/11/22 09:32:23;;;;;;;5.20;1.50;;;;;;;;;;5077022;28;20290;-77
2021/11/22 09:34:50;;;;;;;3.20;1.30;;;;;;;;;;5076661;28;20233;-76
2021/11/22 09:37:18;;;;;;;2.30;1.40;;;;;;;;;;5082383;28;20248;-74
2021/11/22 09:39:45;;;;;;;2.40;1.40;;;;;;;;;;5088249;28;20270;-76
2021/11/22 09:42:13;;;;;;;1.43;1.10;;;;;;;;;;5081041;28;20256;-75
2021/11/22 09:44:41;;;;;;;2.40;1.20;;;;;;;;;;5078231;28;20206;-75
2021/11/22 09:47:09;;;;;;;1.43;1.13;;;;;;;;;;5085094;28;20294;-75
2021/11/22 09:49:37;;;;;;;1.83;1.20;;;;;;;;;;5076982;28;20755;-76
2021/11/22 09:52:04;;;;;;;1.80;1.30;;;;;;;;;;5081595;28;20290;-76
2021/11/22 09:54:32;;;;;;;2.50;1.37;;;;;;;;;;5076563;28;20703;-76
2021/11/22 09:56:59;;;;;;;2.13;1.53;;;;;;;;;;5086917;28;20274;-77
2021/11/22 09:59:26;;;;;;;1.83;1.23;;;;;;;;;;5087727;28;20338;-74
2021/11/22 10:01:55;;;;;;;2.63;1.60;;;;;;;;;;5078859;28;20281;-76
2021/11/22 10:04:29;;;;;;;1.83;1.40;;;;;;;;;;5080512;28;20257;-76
2021/11/22 10:06:57;;;;;;;2.47;1.53;;;;;;;;;;5079061;28;20680;-75
2021/11/22 10:09:40;;;;;;;2.00;1.50;;;;;;;;;;5078772;28;20289;-77
2021/11/22 10:12:09;;;;;;;3.53;1.33;;;;;;;;;;5076069;28;20209;-77
2021/11/22 10:14:39;;;;;;;1.87;1.50;;;;;;;;;;5078487;28;20607;-78
2021/11/22 10:17:19;;;;;;;3.43;1.40;;;;;;;;;;5078100;28;20291;-77
2021/11/22 10:19:48;;;;;;;2.17;1.50;;;;;;;;;;5080358;28;20808;-78
2021/11/22 10:22:18;;;;;;;2.27;1.50;;;;;;;;;;5079533;28;20205;-77
2021/11/22 10:24:46;;;;;;;4.50;1.27;;;;;;;;;;5078668;28;20785;-76
2021/11/22 10:27:34;;;;;;;1.70;1.30;;;;;;;;;;5083547;28;20198;-77
2021/11/22 10:30:16;;;;;;;2.30;1.20;;;;;;;;;;5075070;28;20307;-76
2021/11/22 10:32:43;;;;;;;2.87;1.43;;;;;;;;;;5074884;28;20304;-76
2021/11/22 10:35:18;;;;;;;2.10;1.20;;;;;;;;;;5083581;28;20292;-76
2021/11/22 10:38:03;;;;;;;2.37;1.27;;;;;;;;;;5077717;28;20307;-76
2021/11/22 10:40:32;;;;;;;1.57;1.10;;;;;;;;;;5071355;28;20308;-76
2021/11/22 10:42:59;;;;;;;1.27;0.80;;;;;;;;;;5076900;28;20308;-77
2021/11/22 10:45:28;;;;;;;9.17;0.73;;;;;;;;;;5075869;28;20260;-76
2021/11/22 10:48:00;;;;;;;1.23;0.83;;;;;;;;;;5079596;28;20300;-76
2021/11/22 10:50:35;;;;;;;3.83;1.10;;;;;;;;;;5074869;28;20303;-74
2021/11/22 10:53:02;;;;;;;1.90;0.80;;;;;;;;;;5078528;28;20288;-77
2021/11/22 10:55:30;;;;;;;3.57;0.80;;;;;;;;;;5071901;28;20198;-77
2021/11/22 10:58:00;;;;;;;1.03;0.80;;;;;;;;;;5078809;28;20209;-77
2021/11/22 11:00:29;;;;;;;2.17;0.70;;;;;;;;;;5075928;28;20391;-76
2021/11/22 11:02:58;;;;;;;2.03;0.70;;;;;;;;;;5079731;28;20229;-76
2021/11/22 11:05:29;;;;;;;2.47;0.60;;;;;;;;;;5080936;28;21873;-76
2021/11/22 11:08:00;;;;;;;1.00;0.80;;;;;;;;;;5088503;28;20233;-78
2021/11/22 11:10:27;;;;;;;0.80;0.60;;;;;;;;;;5086895;28;20679;-78
2021/11/22 11:12:55;;;;;;;1.47;0.73;;;;;;;;;;5078340;28;20292;-78
2021/11/22 11:15:23;;;;;;;0.90;0.70;;;;;;;;;;5074507;28;20214;-77
2021/11/22 11:17:50;;;;;;;1.63;1.10;;;;;;;;;;5078220;28;20296;-77
2021/11/22 11:20:22;;;;;;;1.30;0.87;;;;;;;;;;5075309;28;20727;-77
2021/11/22 11:22:52;;;;;;;14.40;4.53;;;;;;;;;;5076182;28;20285;-77
2021/11/22 11:25:20;;;;;;;15.83;5.07;;;;;;;;;;5078736;28;20229;-77
2021/11/22 11:27:47;;;;;;;1.40;1.00;;;;;;;;;;5082369;28;20281;-78
2021/11/22 11:30:15;;;;;;;9.93;3.10;;;;;;;;;;5080846;28;20672;-77
2021/11/22 11:32:43;;;;;;;4.43;1.97;;;;;;;;;;5080825;28;20206;-77
2021/11/22 11:35:15;;;;;;;4.73;1.67;;;;;;;;;;5075714;28;20281;-77
2021/11/22 11:38:00;;;;;;;6.23;2.87;;;;;;;;;;5076365;28;20237;-77
2021/11/22 11:40:36;;;;;;;4.87;2.10;;;;;;;;;;5074352;28;20811;-77
2021/11/22 11:43:20;;;;;;;1.40;1.00;;;;;;;;;;5079084;28;20738;-77
2021/11/22 11:45:51;;;;;;;1.50;0.80;;;;;;;;;;5078514;28;20201;-76
2021/11/22 11:48:27;;;;;;;1.10;0.80;;;;;;;;;;5076306;28;20289;-77
2021/11/22 11:51:05;;;;;;;1.93;0.80;;;;;;;;;;5081776;28;20313;-77
2021/11/22 11:53:34;;;;;;;1.10;0.80;;;;;;;;;;5077687;28;20286;-77
2021/11/22 11:56:09;;;;;;;3.20;1.00;;;;;;;;;;5080838;28;20644;-77
2021/11/22 11:58:36;;;;;;;1.57;0.80;;;;;;;;;;5081373;28;20284;-77
2021/11/22 12:01:06;;;;;;;1.77;1.03;;;;;;;;;;5079254;28;20316;-76
2021/11/22 12:03:53;;;;;;;0.93;0.80;;;;;;;;;;5082215;28;20252;-77
2021/11/22 12:06:46;;;;;;;0.90;0.70;;;;;;;;;;5076811;28;20289;-76
2021/11/22 12:09:43;;;;;;;1.53;0.93;;;;;;;;;;5080425;28;20609;-77
2021/11/22 12:12:33;;;;;;;3.27;0.90;;;;;;;;;;5000558;28;20299;-77
2021/11/22 12:15:00;;;;;;;1.80;0.83;;;;;;;;;;5078522;28;20564;-76
2021/11/22 12:17:46;;;;;;;0.87;0.70;;;;;;;;;;5087665;28;20724;-77
2021/11/22 12:20:34;;;;;;;1.47;0.70;;;;;;;;;;5079908;28;20310;-78
2021/11/22 12:23:02;;;;;;;0.50;0.40;;;;;;;;;;5085132;28;20241;-76
2021/11/22 12:25:43;;;;;;;3.07;0.80;;;;;;;;;;5086487;28;20261;-77
2021/11/22 12:28:16;;;;;;;3.07;1.00;;;;;;;;;;5099160;28;20221;-78
2021/11/22 12:30:44;;;;;;;1.83;0.77;;;;;;;;;;5085521;28;20264;-81
2021/11/22 12:33:31;;;;;;;2.70;0.80;;;;;;;;;;5096162;28;20436;-78
2021/11/22 12:36:00;;;;;;;2.20;0.60;;;;;;;;;;5090498;28;20202;-80
2021/11/22 12:38:28;;;;;;;0.93;0.60;;;;;;;;;;5083906;28;20212;-80
2021/11/22 12:40:56;;;;;;;1.33;0.60;;;;;;;;;;5096126;22;20223;-73
2021/11/22 12:43:39;;;;;;;1.77;0.70;;;;;;;;;;5079200;28;20710;-73
2021/11/22 12:46:06;;;;;;;0.90;0.70;;;;;;;;;;5070699;28;20715;-73
2021/11/22 12:48:34;;;;;;;1.20;0.77;;;;;;;;;;5065560;28;20205;-72
2021/11/22 12:51:02;;;;;;;1.20;0.70;;;;;;;;;;5068163;28;20336;-73
2021/11/22 12:53:30;;;;;;;1.03;0.70;;;;;;;;;;5066972;28;22463;-72
2021/11/22 12:55:57;;;;;;;1.23;0.70;;;;;;;;;;5068518;28;20596;-73
2021/11/22 12:58:25;;;;;;;2.00;0.60;;;;;;;;;;5063941;28;20400;-72
2021/11/22 13:00:55;;;;;;;1.13;0.70;;;;;;;;;;5069264;28;20523;-73
2021/11/22 13:03:23;;;;;;;2.67;0.87;;;;;;;;;;5066870;28;20202;-73
2021/11/22 13:05:53;;;;;;;0.70;0.70;;;;;;;;;;5067530;28;20219;-73
2021/11/22 13:08:53;;;;;;;3.23;1.00;;;;;;;;;;5067770;28;20202;-73
2021/11/22 13:11:28;;;;;;;1.93;0.90;;;;;;;;;;5069412;28;20298;-73
2021/11/22 13:13:58;;;;;;;10.90;3.90;;;;;;;;;;5071620;28;20562;-73
2021/11/22 13:16:28;;;;;;;24.27;9.37;;;;;;;;;;5073560;28;20209;-73
2021/11/22 13:18:57;;;;;;;1.87;1.17;;;;;;;;;;5074492;28;20657;-73
2021/11/22 13:21:26;;;;;;;4.20;1.00;;;;;;;;;;5077461;28;20256;-73
2021/11/22 13:23:55;;;;;;;6.50;3.17;;;;;;;;;;5074853;28;20261;-73
2021/11/22 13:26:23;;;;;;;1.80;0.97;;;;;;;;;;5074459;28;20203;-73
2021/11/22 13:28:52;;;;;;;1.70;0.90;;;;;;;;;;5073626;28;20206;-73
2021/11/22 13:31:19;;;;;;;2.23;1.30;;;;;;;;;;5076959;28;20221;-73
2021/11/22 13:33:49;;;;;;;0.87;0.70;;;;;;;;;;5075988;28;20277;-73
2021/11/22 13:36:16;;;;;;;1.47;0.70;;;;;;;;;;5077486;28;20214;-74
2021/11/22 13:38:45;;;;;;;2.13;0.70;;;;;;;;;;5074774;28;20213;-73
2021/11/22 13:41:14;;;;;;;1.97;0.90;;;;;;;;;;5079240;28;20260;-73
2021/11/22 13:43:41;;;;;;;2.13;1.00;;;;;;;;;;5074292;28;20198;-73
2021/11/22 13:46:10;;;;;;;1.67;0.90;;;;;;;;;;5073892;28;20264;-73
2021/11/22 13:48:49;;;;;;;2.13;1.00;;;;;;;;;;5075627;28;20250;-73
2021/11/22 13:51:17;;;;;;;0.70;0.40;;;;;;;;;;5076553;28;20766;-73
2021/11/22 13:53:48;;;;;;;1.53;0.67;;;;;;;;;;5079447;28;20300;-73
2021/11/22 13:56:29;;;;;;;1.03;0.63;;;;;;;;;;5078706;28;20233;-73
2021/11/22 13:58:59;;;;;;;0.63;0.53;;;;;;;;;;5078416;28;20284;-73
2021/11/22 14:01:28;;;;;;;1.70;0.80;;;;;;;;;;5072132;28;20304;-73
2021/11/22 14:03:59;;;;;;;4.50;2.17;;;;;;;;;;5078081;28;20316;-73
2021/11/22 14:06:26;;;;;;;4.10;0.70;;;;;;;;;;5071580;28;20205;-73
2021/11/22 14:08:54;;;;;;;1.73;0.53;;;;;;;;;;5076082;28;20283;-73
2021/11/22 14:11:22;;;;;;;2.90;1.30;;;;;;;;;;5074124;28;20252;-73
2021/11/22 14:13:49;;;;;;;2.10;0.77;;;;;;;;;;5070573;28;20293;-73
2021/11/22 14:16:17;;;;;;;5.13;1.53;;;;;;;;;;5074942;28;20265;-73
2021/11/22 14:18:45;;;;;;;4.87;1.83;;;;;;;;;;5074145;28;20202;-73
2021/11/22 14:21:14;;;;;;;1.60;0.80;;;;;;;;;;5076529;28;20660;-73
2021/11/22 14:23:42;;;;;;;2.43;1.60;;;;;;;;;;5075814;28;20239;-73
2021/11/22 14:26:10;;;;;;;2.03;1.00;;;;;;;;;;5071959;28;20251;-73
2021/11/22 14:28:41;;;;;;;1.30;0.70;;;;;;;;;;5073304;28;20210;-73
2021/11/22 14:31:08;;;;;;;1.47;0.70;;;;;;;;;;5072480;28;20318;-73
2021/11/22 14:33:37;;;;;;;1.23;0.80;;;;;;;;;;5077293;28;20326;-73
2021/11/22 14:36:05;;;;;;;3.67;0.70;;;;;;;;;;5076717;28;20214;-74
2021/11/22 14:38:35;;;;;;;1.23;0.73;;;;;;;;;;5076280;28;20316;-73
2021/11/22 14:41:18;;;;;;;1.13;0.60;;;;;;;;;;5076440;28;20256;-73
2021/11/22 14:43:47;;;;;;;1.30;0.70;;;;;;;;;;5075068;28;20201;-73
2021/11/22 14:46:18;;;;;;;2.67;1.00;;;;;;;;;;5077657;28;20206;-73
2021/11/22 14:48:46;;;;;;;1.70;0.90;;;;;;;;;;5076683;28;20441;-73
2021/11/22 14:51:14;;;;;;;1.60;0.70;;;;;;;;;;5076742;28;20253;-73
2021/11/22 14:53:43;;;;;;;1.60;0.90;;;;;;;;;;5076304;28;20286;-73